East Canyon Creek Provisional Data

  • The data used to create the chart above are available in the table below.
  • You may freely copy and paste the table below for further analysis.
  • If higher frequency or longer history data are required, click here
    for the USGS NWISWeb page. The East Canyon Creek gage below the East Canyon Water Reclamation Facility is 10133800.
  • For ECWRF data, contact Michael Boyle, Operations Manager, at 435.214.5229.
  • The Utah Division of Wildlife Resources has advised that a minimum flow of 3.5 cfs,
    preferably 6.0 cfs, is required to support East Canyon Creek’s cold-water fishery.


Disclaimer
The Snyderville Basin Water Reclamation District provides no warranty, expressed or implied, as to the relevance, accuracy, reliability or completeness of the data. The link to the USGS NWISWeb page is for convenience only. The Snyderville Basin Water Reclamation District does not have any control over the collection or maintenance of the stream flow data at the East Canyon Creek gage below ECWRF and cannot guarantee the relevance, timeliness, or accuracy of that data.

 

Provisional Flow Data (cfs)

Date Downstream Flow ECWRF Flow Upstream Flow % ECWRF Flow
8/23/2012 10 4.32 5.68 43.20
8/24/2012 9 4.48 4.52 49.78
8/25/2012 9.6 4.83 4.77 50.31
8/26/2012 10 4.72 5.28 47.20
8/27/2012 9.3 4.31 4.99 46.34
8/28/2012 7.7 4.05 3.65 52.60
8/29/2012 5.7 4.04 1.66 70.88
8/30/2012 5.9 3.79 2.11 64.24
8/31/2012 9.7 3.39 6.31 34.95
9/1/2012 13 4.06 8.94 31.23
9/2/2012 13 3.59 9.41 27.62
9/3/2012 10 3.43 6.57 34.30
9/4/2012 8.8 2.96 5.84 33.64
9/5/2012 7.7 2.82 4.88 36.62
9/6/2012 7.7 2.55 5.15 33.12
9/7/2012 8 2.62 5.38 32.75
9/8/2012 8 2.73 5.27 34.12
9/9/2012 6.9 2.85 4.05 41.30
9/10/2012 7.6 2.77 4.83 36.45
9/11/2012 7.7 2.54 5.16 32.99
9/12/2012 8.9 2.6 6.3 29.21
9/13/2012 8.4 2.51 5.89 29.88
9/14/2012 7.9 2.53 5.37 32.03
9/15/2012 7.5 2.73 4.77 36.40
9/16/2012 8 2.72 5.28 34.00
9/17/2012 8.7 2.7 6.0 31.03
9/18/2012 7.5 2.47 5.03 32.93
9/19/2012 7.1 2.57 4.53 36.20
9/20/2012 7.7 2.55 5.15 33.12
9/21/2012 8.2 2.62 5.58 31.95
9/22/2012 9.5 2.79 6.71 29.37
9/23/2012 9.1 2.84 6.26 31.21
9/24/2012 8.9 2.92 5.98 32.81
9/25/2012 16 2.96 13.04 18.50
9/26/2012 15 2.8 12.2 18.67
9/27/2012 13 2.65 10.35 20.38
9/28/2012 11 2.77 8.23 25.18
9/29/2012 12 2.91 9.09 24.25
9/30/2012 11 2.83 8.17 25.73
10/1/2012 10 2.64 7.36 26.40
10/2/2012 9.5 2.55 6.95 26.84
10/3/2012 9.7 2.56 7.14 26.39
10/4/2012 11 2.5 8.5 22.73
10/5/2012 12 2.6 9.4 21.67
10/6/2012 11 2.75 8.25 25.00
10/7/2012 11 2.7 8.3 24.55
10/8/2012 11 2.72 8.28 24.73
10/9/2012 12 2.57 9.43 21.42
10/10/2012 10 2.54 7.46 25.40
10/11/2012 10 2.34 7.66 23.40
10/12/2012 12 3.33 8.67 27.75
10/13/2012 17 3.71 13.29 21.82
10/14/2012 13 3.44 9.56 26.46
10/15/2012 13 3.36 9.64 25.85
10/16/2012 12 3.3 8.7 27.50
10/17/2012 12 3.4 8.6 28.33
10/18/2012 12 3.36 8.64 28.00
10/19/2012 12 3.56 8.44 29.67
10/20/2012 13 3.89 9.11 29.92
10/21/2012 13 3.85 9.15 29.62
10/22/2012 15 3.79 11.21 25.27